Time;durP1;ratioP1;P1;durP2;ratioP2;P2;SDS_P1;SDS_P2;PMS_P1;PMS_P2;Temp;Humidity;BMP_temperature;BMP_pressure;BME280_temperature;BME280_humidity;BME280_pressure;Samples;Min_cycle;Max_cycle;Signal;HPM_P1;HPM_P2
2023/04/29 00:00:46;;;;;;;0.00;0.00;;;9.50;90.20;;;;;;4951727;29;20084;-64
2023/04/29 00:03:12;;;;;;;0.00;0.00;;;9.50;90.10;;;;;;4966219;28;20098;-64
2023/04/29 00:05:37;;;;;;;0.00;0.00;;;9.50;90.10;;;;;;4951587;29;20047;-64
2023/04/29 00:08:03;;;;;;;0.35;0.20;;;9.50;90.00;;;;;;4951398;29;20055;-63
2023/04/29 00:10:29;;;;;;;0.00;0.00;;;9.50;90.00;;;;;;4951861;29;20079;-63
2023/04/29 00:12:54;;;;;;;0.00;0.00;;;9.50;90.00;;;;;;4950840;29;20043;-63
2023/04/29 00:15:20;;;;;;;0.00;0.00;;;9.50;90.00;;;;;;4950500;29;20043;-64
2023/04/29 00:17:46;;;;;;;0.00;0.00;;;9.40;89.90;;;;;;4950538;29;20043;-63
2023/04/29 00:20:11;;;;;;;0.00;0.00;;;9.50;90.00;;;;;;4951218;29;20476;-64
2023/04/29 00:22:37;;;;;;;0.05;0.05;;;9.40;90.10;;;;;;4950365;28;20044;-64
2023/04/29 00:25:04;;;;;;;0.40;0.40;;;9.40;90.10;;;;;;4950891;29;20036;-64
2023/04/29 00:27:30;;;;;;;0.00;0.00;;;9.40;90.10;;;;;;4950880;28;20114;-63
2023/04/29 00:29:56;;;;;;;0.00;0.00;;;9.50;90.00;;;;;;4950538;29;20054;-63
2023/04/29 00:32:22;;;;;;;0.00;0.00;;;9.40;90.00;;;;;;4951064;29;20054;-63
2023/04/29 00:34:47;;;;;;;0.15;0.15;;;9.40;90.00;;;;;;4950737;29;20049;-63
2023/04/29 00:37:13;;;;;;;0.10;0.10;;;9.40;90.00;;;;;;4951278;29;20094;-64
2023/04/29 00:39:39;;;;;;;0.10;0.10;;;9.40;89.90;;;;;;4950161;29;20942;-63
2023/04/29 00:42:04;;;;;;;0.03;0.03;;;9.40;90.00;;;;;;4951127;29;20102;-63
2023/04/29 00:44:30;;;;;;;0.00;0.00;;;9.40;90.10;;;;;;4951002;29;20047;-63
2023/04/29 00:46:56;;;;;;;0.30;0.30;;;9.40;90.00;;;;;;4950775;29;20058;-64
2023/04/29 00:49:21;;;;;;;0.00;0.00;;;9.40;90.00;;;;;;4950864;29;20051;-63
2023/04/29 00:51:48;;;;;;;3.50;0.63;;;9.40;89.80;;;;;;4950744;29;20061;-63
2023/04/29 00:54:14;;;;;;;2.25;0.63;;;9.40;89.90;;;;;;4951171;29;20039;-63
2023/04/29 00:56:44;;;;;;;0.10;0.10;;;9.50;89.80;;;;;;4951012;29;20074;-64
2023/04/29 00:59:11;;;;;;;0.10;0.10;;;9.40;89.80;;;;;;4937270;29;20039;-63
2023/04/29 01:01:37;;;;;;;0.00;0.00;;;9.40;89.80;;;;;;4951068;29;20040;-63
2023/04/29 01:04:04;;;;;;;0.03;0.03;;;9.40;89.80;;;;;;4950864;29;20042;-63
2023/04/29 01:07:01;;;;;;;0.05;0.05;;;9.40;89.80;;;;;;4950271;29;20043;-64
2023/04/29 01:09:54;;;;;;;0.00;0.00;;;9.40;89.70;;;;;;4938202;29;20059;-64
2023/04/29 01:12:25;;;;;;;0.10;0.10;;;9.40;89.80;;;;;;4951174;28;20122;-63
2023/04/29 01:15:02;;;;;;;0.25;0.25;;;9.30;89.80;;;;;;4950834;29;20035;-64
2023/04/29 01:17:32;;;;;;;0.10;0.10;;;9.40;89.80;;;;;;4950554;29;20568;-64
2023/04/29 01:19:59;;;;;;;0.75;0.65;;;9.40;90.10;;;;;;4933698;29;20040;-63
2023/04/29 01:22:25;;;;;;;0.00;0.00;;;9.40;90.00;;;;;;4950951;29;20097;-63
2023/04/29 01:24:50;;;;;;;0.00;0.00;;;9.30;89.90;;;;;;4933428;29;20667;-63
2023/04/29 01:27:28;;;;;;;0.00;0.00;;;9.30;89.90;;;;;;4950649;29;20070;-63
2023/04/29 01:30:09;;;;;;;0.10;0.10;;;9.30;89.90;;;;;;4931154;29;20107;-63
2023/04/29 01:32:57;;;;;;;0.00;0.00;;;9.30;89.80;;;;;;4931474;29;20051;-62
2023/04/29 01:35:47;;;;;;;0.05;0.05;;;9.30;89.80;;;;;;4946417;29;20040;-63
2023/04/29 01:38:15;;;;;;;0.00;0.00;;;9.30;89.80;;;;;;4945582;29;20043;-63
2023/04/29 01:41:08;;;;;;;0.00;0.00;;;9.30;89.70;;;;;;4917820;29;20051;-63
2023/04/29 01:43:37;;;;;;;4.38;1.35;;;9.30;89.70;;;;;;4951364;29;20043;-63
2023/04/29 01:46:05;;;;;;;1.20;1.13;;;9.30;89.60;;;;;;4950885;29;20063;-63
2023/04/29 01:48:31;;;;;;;0.00;0.00;;;9.30;89.60;;;;;;4950696;29;20086;-63
2023/04/29 01:50:57;;;;;;;0.10;0.10;;;9.30;89.70;;;;;;4950848;28;20044;-63
2023/04/29 01:53:22;;;;;;;0.08;0.08;;;9.30;89.70;;;;;;4954376;29;20043;-62
2023/04/29 01:55:48;;;;;;;0.03;0.03;;;9.30;89.60;;;;;;4953945;29;20040;-63
2023/04/29 01:58:13;;;;;;;0.00;0.00;;;9.20;89.50;;;;;;4936849;29;20170;-63
2023/04/29 02:00:39;;;;;;;0.30;0.30;;;9.30;89.60;;;;;;4953811;29;20054;-62
2023/04/29 02:03:05;;;;;;;0.00;0.00;;;9.20;89.70;;;;;;4953553;29;20051;-62
2023/04/29 02:05:32;;;;;;;0.00;0.00;;;9.20;89.80;;;;;;4953831;29;20054;-62
2023/04/29 02:07:59;;;;;;;0.08;0.08;;;9.10;89.80;;;;;;4954043;29;20412;-62
2023/04/29 02:10:25;;;;;;;1.73;0.75;;;9.10;89.90;;;;;;4953847;29;20838;-62
2023/04/29 02:12:51;;;;;;;0.00;0.00;;;9.10;89.90;;;;;;4953819;29;20039;-62
2023/04/29 02:15:17;;;;;;;0.00;0.00;;;9.10;90.00;;;;;;4953611;29;20047;-62
2023/04/29 02:17:43;;;;;;;0.00;0.00;;;9.10;90.00;;;;;;4953986;29;20047;-62
2023/04/29 02:20:09;;;;;;;0.30;0.30;;;9.10;90.00;;;;;;4953664;29;20050;-62
2023/04/29 02:22:35;;;;;;;0.00;0.00;;;9.10;89.90;;;;;;4952515;29;20129;-62
2023/04/29 02:25:00;;;;;;;0.10;0.10;;;9.10;90.00;;;;;;4954168;29;20146;-62
2023/04/29 02:27:26;;;;;;;0.20;0.20;;;9.10;89.90;;;;;;4954162;29;20043;-62
2023/04/29 02:29:51;;;;;;;0.17;0.17;;;9.10;90.00;;;;;;4936287;29;20101;-62
2023/04/29 02:32:19;;;;;;;0.65;0.65;;;9.10;90.00;;;;;;4953492;29;20514;-63
2023/04/29 02:34:45;;;;;;;0.57;0.57;;;9.10;90.00;;;;;;4953643;29;20051;-62
2023/04/29 02:37:11;;;;;;;0.00;0.00;;;9.10;90.00;;;;;;4953765;29;20051;-62
2023/04/29 02:39:37;;;;;;;0.00;0.00;;;9.20;89.80;;;;;;4953515;29;20036;-62
2023/04/29 02:42:02;;;;;;;0.10;0.10;;;9.20;90.00;;;;;;4952998;29;20110;-62
2023/04/29 02:44:29;;;;;;;0.40;0.40;;;9.10;90.00;;;;;;4953041;29;20047;-62
2023/04/29 02:46:55;;;;;;;0.25;0.25;;;9.20;90.10;;;;;;4953245;29;20102;-62
2023/04/29 02:49:20;;;;;;;1.17;1.08;;;9.20;90.00;;;;;;4953452;29;20047;-62
2023/04/29 02:51:48;;;;;;;0.32;0.22;;;9.10;90.10;;;;;;4952989;29;20035;-63
2023/04/29 02:54:15;;;;;;;0.00;0.00;;;9.10;90.10;;;;;;4952986;29;20051;-63
2023/04/29 02:56:41;;;;;;;0.10;0.10;;;9.10;90.10;;;;;;4952897;29;20051;-62
2023/04/29 02:59:06;;;;;;;0.10;0.10;;;9.10;90.00;;;;;;4953134;29;20050;-62
2023/04/29 03:01:32;;;;;;;0.00;0.00;;;9.10;90.00;;;;;;4952714;29;20141;-62
2023/04/29 03:03:57;;;;;;;0.10;0.10;;;9.10;89.90;;;;;;4952516;28;20087;-62
2023/04/29 03:06:23;;;;;;;0.00;0.00;;;9.20;89.80;;;;;;4952609;29;20074;-62
2023/04/29 03:08:49;;;;;;;0.00;0.00;;;9.10;89.80;;;;;;4952906;29;20531;-62
2023/04/29 03:11:14;;;;;;;0.15;0.15;;;9.20;89.80;;;;;;4952709;29;20110;-62
2023/04/29 03:13:40;;;;;;;0.35;0.35;;;9.10;89.70;;;;;;4952578;29;20511;-62
2023/04/29 03:16:06;;;;;;;0.05;0.05;;;9.10;89.60;;;;;;4953135;29;20571;-62
2023/04/29 03:18:31;;;;;;;0.00;0.00;;;9.20;89.60;;;;;;4952925;29;20047;-62
2023/04/29 03:20:57;;;;;;;0.00;0.00;;;9.20;89.60;;;;;;4936237;29;20396;-62
2023/04/29 03:23:23;;;;;;;0.00;0.00;;;9.10;89.60;;;;;;4953018;29;20496;-62
2023/04/29 03:25:48;;;;;;;0.00;0.00;;;9.10;89.60;;;;;;4952036;29;20533;-62
2023/04/29 03:28:14;;;;;;;0.00;0.00;;;9.10;89.60;;;;;;4951645;29;20039;-62
2023/04/29 03:30:40;;;;;;;0.40;0.40;;;9.10;89.70;;;;;;4952150;29;20134;-62
2023/04/29 03:33:05;;;;;;;0.08;0.08;;;9.10;90.00;;;;;;4952294;29;20051;-62
2023/04/29 03:35:31;;;;;;;0.00;0.00;;;9.10;89.90;;;;;;4952248;29;20408;-62
2023/04/29 03:37:56;;;;;;;0.57;0.57;;;9.10;90.00;;;;;;4951899;29;20039;-62
2023/04/29 03:40:22;;;;;;;0.00;0.00;;;9.20;90.00;;;;;;4952755;29;20054;-62
2023/04/29 03:42:48;;;;;;;1.90;0.60;;;9.20;90.00;;;;;;4951440;29;20039;-62
2023/04/29 03:45:13;;;;;;;0.10;0.10;;;9.10;89.90;;;;;;4934447;29;20058;-62
2023/04/29 03:47:39;;;;;;;0.10;0.10;;;9.10;90.00;;;;;;4950870;29;20968;-62
2023/04/29 03:50:20;;;;;;;0.00;0.00;;;9.10;89.90;;;;;;5086634;27;20397;-63
2023/04/29 03:52:46;;;;;;;0.20;0.20;;;9.20;90.00;;;;;;5072362;28;20547;-63
2023/04/29 03:55:12;;;;;;;0.08;0.08;;;9.10;89.90;;;;;;5066516;28;20054;-63
2023/04/29 03:57:37;;;;;;;0.00;0.00;;;9.20;89.90;;;;;;5078251;28;20119;-63
2023/04/29 04:00:04;;;;;;;0.10;0.10;;;9.10;90.00;;;;;;5067265;28;20037;-63
2023/04/29 04:02:29;;;;;;;0.10;0.10;;;9.20;90.00;;;;;;5076130;28;20044;-63
2023/04/29 04:04:55;;;;;;;0.00;0.00;;;9.10;90.10;;;;;;5066462;28;20067;-63
2023/04/29 04:07:20;;;;;;;1.45;0.68;;;9.20;90.00;;;;;;5074714;28;20055;-63
2023/04/29 04:09:46;;;;;;;0.00;0.00;;;9.10;90.00;;;;;;5084749;28;20063;-63
2023/04/29 04:12:12;;;;;;;0.00;0.00;;;9.10;90.10;;;;;;5072404;28;20086;-63
2023/04/29 04:14:37;;;;;;;0.00;0.00;;;9.10;90.00;;;;;;5080231;28;20032;-63
2023/04/29 04:17:03;;;;;;;0.60;0.55;;;9.10;89.90;;;;;;5067973;28;20513;-63
2023/04/29 04:19:29;;;;;;;0.00;0.00;;;9.20;89.80;;;;;;5065969;28;20094;-63
2023/04/29 04:21:55;;;;;;;0.00;0.00;;;9.10;89.80;;;;;;5065492;28;20033;-63
2023/04/29 04:24:21;;;;;;;0.30;0.30;;;9.10;89.80;;;;;;5067511;28;20032;-63
2023/04/29 04:26:47;;;;;;;0.50;0.50;;;9.10;89.70;;;;;;5075282;28;20055;-63
2023/04/29 04:29:13;;;;;;;0.03;0.03;;;9.20;89.60;;;;;;5068982;28;20056;-63
2023/04/29 04:31:38;;;;;;;0.00;0.00;;;9.20;89.50;;;;;;5065376;28;20044;-64
2023/04/29 04:34:04;;;;;;;0.00;0.00;;;9.10;89.50;;;;;;5064211;28;20044;-63
2023/04/29 04:36:29;;;;;;;0.00;0.00;;;9.20;89.30;;;;;;5077088;28;20489;-64
2023/04/29 04:38:55;;;;;;;1.55;0.75;;;9.20;89.20;;;;;;5067949;28;20040;-64
2023/04/29 04:41:20;;;;;;;0.00;0.00;;;9.20;89.10;;;;;;5065336;28;20049;-64
2023/04/29 04:43:46;;;;;;;0.00;0.00;;;9.20;89.10;;;;;;5064913;28;20550;-63
2023/04/29 04:46:13;;;;;;;2.83;1.90;;;9.20;89.00;;;;;;5066834;28;20105;-63
2023/04/29 04:48:39;;;;;;;0.00;0.00;;;9.10;88.90;;;;;;5073994;28;20056;-63
2023/04/29 04:51:11;;;;;;;0.20;0.20;;;9.20;88.90;;;;;;5076214;28;20105;-64
2023/04/29 04:53:38;;;;;;;0.00;0.00;;;9.20;88.90;;;;;;5065668;28;20068;-63
2023/04/29 04:56:05;;;;;;;0.00;0.00;;;9.20;88.80;;;;;;5064231;28;20049;-64
2023/04/29 04:58:31;;;;;;;0.00;0.00;;;9.20;88.70;;;;;;5065415;28;20487;-64
2023/04/29 05:00:57;;;;;;;0.15;0.15;;;9.20;88.60;;;;;;5055822;28;20140;-64
2023/04/29 05:03:23;;;;;;;0.00;0.00;;;9.20;88.60;;;;;;5052175;28;20044;-64
2023/04/29 05:05:53;;;;;;;0.00;0.00;;;9.10;88.60;;;;;;5051781;28;20493;-65
2023/04/29 05:08:19;;;;;;;0.00;0.00;;;9.10;88.50;;;;;;5052175;28;20098;-65
2023/04/29 05:10:44;;;;;;;0.00;0.00;;;9.10;88.50;;;;;;5051860;28;20061;-64
2023/04/29 05:13:10;;;;;;;0.15;0.15;;;9.10;88.40;;;;;;5058662;28;20040;-63
2023/04/29 05:15:35;;;;;;;0.00;0.00;;;9.10;88.40;;;;;;5071617;28;20040;-63
2023/04/29 05:18:01;;;;;;;0.00;0.00;;;9.10;88.40;;;;;;5064648;28;20041;-63
2023/04/29 05:20:27;;;;;;;0.00;0.00;;;9.00;88.40;;;;;;5052049;28;20687;-63
2023/04/29 05:22:52;;;;;;;0.15;0.15;;;9.00;88.40;;;;;;5054443;28;20891;-63
2023/04/29 05:25:18;;;;;;;0.10;0.10;;;9.00;88.30;;;;;;5070399;28;20044;-63
2023/04/29 05:27:43;;;;;;;0.03;0.03;;;8.90;88.30;;;;;;5068318;28;20052;-63
2023/04/29 05:30:09;;;;;;;0.00;0.00;;;8.90;88.30;;;;;;5051526;28;20056;-63
2023/04/29 05:32:35;;;;;;;0.00;0.00;;;9.00;88.30;;;;;;5051499;28;20351;-63
2023/04/29 05:35:01;;;;;;;0.40;0.20;;;9.00;88.30;;;;;;5068901;28;20033;-66
2023/04/29 05:37:29;;;;;;;0.00;0.00;;;9.10;88.40;;;;;;5064897;28;20852;-63
2023/04/29 05:39:55;;;;;;;1.98;1.20;;;9.10;88.30;;;;;;5051263;28;20045;-63
2023/04/29 05:42:22;;;;;;;0.25;0.25;;;9.10;88.20;;;;;;5050923;28;20051;-64
2023/04/29 05:44:48;;;;;;;0.00;0.00;;;9.10;88.10;;;;;;5062144;28;20059;-63
2023/04/29 05:47:14;;;;;;;0.00;0.00;;;9.10;88.00;;;;;;5071322;28;20040;-63
2023/04/29 05:49:39;;;;;;;0.00;0.00;;;9.20;87.80;;;;;;5051283;28;20063;-63
2023/04/29 05:52:05;;;;;;;0.00;0.00;;;9.20;87.80;;;;;;5051130;28;20111;-63
2023/04/29 05:54:34;;;;;;;0.00;0.00;;;9.20;87.50;;;;;;5058340;28;20501;-63
2023/04/29 05:57:03;;;;;;;0.00;0.00;;;9.20;87.50;;;;;;5055172;28;20076;-64
2023/04/29 05:59:32;;;;;;;0.00;0.00;;;9.20;87.40;;;;;;5050540;28;20049;-64
2023/04/29 06:01:58;;;;;;;0.00;0.00;;;9.20;87.40;;;;;;5050701;28;20075;-65
2023/04/29 06:04:25;;;;;;;0.25;0.25;;;9.30;87.20;;;;;;5048574;28;20596;-64
2023/04/29 06:06:51;;;;;;;0.00;0.00;;;9.40;87.00;;;;;;5050348;28;20084;-64
2023/04/29 06:09:19;;;;;;;0.00;0.00;;;9.30;86.70;;;;;;5050623;28;20713;-64
2023/04/29 06:11:45;;;;;;;0.00;0.00;;;9.40;86.80;;;;;;5049570;28;20045;-64
2023/04/29 06:14:11;;;;;;;0.00;0.00;;;9.50;86.50;;;;;;5051513;28;20135;-63
2023/04/29 06:16:36;;;;;;;0.98;0.75;;;9.40;86.40;;;;;;5061656;28;20115;-63
2023/04/29 06:19:02;;;;;;;0.00;0.00;;;9.50;86.50;;;;;;5066729;28;20060;-63
2023/04/29 06:21:28;;;;;;;0.00;0.00;;;9.50;86.20;;;;;;5069634;28;20485;-63
2023/04/29 06:23:53;;;;;;;0.00;0.00;;;9.60;85.90;;;;;;5055888;28;20057;-65
2023/04/29 06:26:20;;;;;;;0.08;0.08;;;9.60;85.90;;;;;;5066023;28;20044;-63
2023/04/29 06:28:49;;;;;;;0.10;0.10;;;9.60;85.70;;;;;;5068735;28;20048;-63
2023/04/29 06:31:15;;;;;;;0.10;0.10;;;9.60;85.80;;;;;;5068933;28;20119;-63
2023/04/29 06:33:41;;;;;;;0.00;0.00;;;9.70;85.50;;;;;;5052720;28;20052;-63
2023/04/29 06:36:07;;;;;;;0.00;0.00;;;9.80;85.50;;;;;;5057439;28;20033;-63
2023/04/29 06:38:33;;;;;;;0.10;0.10;;;9.80;85.30;;;;;;5048952;28;20052;-63
2023/04/29 06:40:59;;;;;;;0.20;0.20;;;9.90;85.30;;;;;;5049485;28;20490;-63
2023/04/29 06:43:28;;;;;;;0.00;0.00;;;9.90;85.20;;;;;;5048413;28;20135;-62
2023/04/29 06:45:54;;;;;;;0.30;0.30;;;9.90;84.10;;;;;;5047505;28;20044;-63
2023/04/29 06:48:20;;;;;;;0.00;0.00;;;9.90;84.70;;;;;;5041424;28;20053;-63
2023/04/29 06:50:50;;;;;;;0.00;0.00;;;10.00;84.80;;;;;;5051458;28;20033;-63
2023/04/29 06:53:16;;;;;;;0.00;0.00;;;10.00;84.50;;;;;;5048370;28;20052;-64
2023/04/29 06:55:42;;;;;;;0.00;0.00;;;10.10;84.10;;;;;;5048910;28;20084;-65
2023/04/29 06:58:07;;;;;;;0.00;0.00;;;10.00;84.00;;;;;;5048103;28;20061;-64
2023/04/29 07:00:33;;;;;;;0.20;0.20;;;10.10;84.00;;;;;;5046895;28;20056;-63
2023/04/29 07:02:58;;;;;;;0.00;0.00;;;10.20;84.10;;;;;;5049084;28;20141;-63
2023/04/29 07:05:24;;;;;;;0.00;0.00;;;10.20;84.10;;;;;;5048959;28;20037;-64
2023/04/29 07:07:49;;;;;;;0.08;0.08;;;10.30;83.30;;;;;;5048607;28;20053;-64
2023/04/29 07:10:15;;;;;;;0.00;0.00;;;10.30;82.60;;;;;;5049248;28;20055;-63
2023/04/29 07:12:40;;;;;;;0.00;0.00;;;10.30;81.70;;;;;;5058587;28;20520;-63
2023/04/29 07:15:07;;;;;;;0.25;0.25;;;10.30;82.00;;;;;;5044469;28;20041;-64
2023/04/29 07:17:32;;;;;;;0.00;0.00;;;10.40;82.10;;;;;;5029242;28;20049;-63
2023/04/29 07:19:58;;;;;;;0.00;0.00;;;10.40;81.50;;;;;;5048230;28;20127;-64
2023/04/29 07:22:24;;;;;;;0.55;0.55;;;10.40;80.70;;;;;;5047684;28;20041;-63
2023/04/29 07:24:52;;;;;;;0.00;0.00;;;10.40;81.00;;;;;;5048605;28;20056;-65
2023/04/29 07:27:18;;;;;;;0.10;0.10;;;10.60;81.40;;;;;;5049070;28;20041;-63
2023/04/29 07:29:43;;;;;;;1.15;0.25;;;10.60;81.30;;;;;;5048335;28;20516;-63
2023/04/29 07:32:09;;;;;;;0.10;0.10;;;10.60;80.80;;;;;;5048684;28;20409;-64
2023/04/29 07:34:35;;;;;;;0.00;0.00;;;10.70;80.80;;;;;;5048634;28;20409;-63
2023/04/29 07:37:00;;;;;;;0.00;0.00;;;10.70;79.90;;;;;;5047680;28;20467;-64
2023/04/29 07:39:30;;;;;;;0.20;0.20;;;10.70;79.80;;;;;;5048217;28;20049;-63
2023/04/29 07:41:56;;;;;;;0.00;0.00;;;10.80;79.70;;;;;;5049135;28;20045;-64
2023/04/29 07:44:22;;;;;;;0.00;0.00;;;10.70;78.90;;;;;;5049043;28;20110;-64
2023/04/29 07:46:47;;;;;;;0.00;0.00;;;10.80;79.40;;;;;;5049023;28;20488;-64
2023/04/29 07:49:13;;;;;;;0.00;0.00;;;10.80;79.00;;;;;;5048257;28;20060;-63
2023/04/29 07:51:42;;;;;;;0.10;0.10;;;10.90;78.80;;;;;;5049901;28;20072;-63
2023/04/29 07:54:08;;;;;;;0.00;0.00;;;10.80;77.40;;;;;;5068544;28;20057;-64
2023/04/29 07:56:34;;;;;;;0.10;0.10;;;10.90;77.30;;;;;;5068565;28;20063;-63
2023/04/29 07:59:00;;;;;;;0.08;0.08;;;10.90;76.40;;;;;;5055238;28;20053;-63
2023/04/29 08:01:27;;;;;;;0.00;0.00;;;10.90;77.70;;;;;;5046470;28;20049;-64
2023/04/29 08:03:52;;;;;;;0.00;0.00;;;11.00;76.50;;;;;;5043331;28;20045;-63
2023/04/29 08:06:20;;;;;;;1.02;1.02;;;11.00;77.10;;;;;;5047820;28;20757;-63
2023/04/29 08:08:46;;;;;;;0.00;0.00;;;11.10;75.60;;;;;;5046820;28;20056;-63
2023/04/29 08:11:16;;;;;;;0.08;0.08;;;11.10;75.80;;;;;;5047292;28;20086;-68
2023/04/29 08:13:42;;;;;;;0.08;0.08;;;11.10;76.20;;;;;;5046912;28;20040;-65
2023/04/29 08:16:08;;;;;;;0.10;0.10;;;11.30;75.80;;;;;;5048566;28;20094;-65
2023/04/29 08:18:34;;;;;;;0.00;0.00;;;11.40;74.70;;;;;;5048461;28;20128;-64
2023/04/29 08:21:00;;;;;;;0.10;0.10;;;11.40;74.10;;;;;;5048630;28;20064;-63
2023/04/29 08:23:26;;;;;;;0.00;0.00;;;11.50;73.10;;;;;;5048643;28;20033;-63
2023/04/29 08:25:52;;;;;;;0.00;0.00;;;11.60;74.10;;;;;;5048411;28;20108;-64
2023/04/29 08:28:18;;;;;;;0.00;0.00;;;11.60;73.50;;;;;;5048465;28;20045;-64
2023/04/29 08:30:44;;;;;;;0.00;0.00;;;11.60;72.70;;;;;;5048717;28;20451;-64
2023/04/29 08:33:11;;;;;;;0.00;0.00;;;11.60;73.00;;;;;;5048190;28;20057;-69
2023/04/29 08:35:37;;;;;;;0.00;0.00;;;11.70;72.70;;;;;;5048618;28;20510;-64
2023/04/29 08:38:06;;;;;;;0.00;0.00;;;11.80;71.90;;;;;;5052399;28;20052;-64
2023/04/29 08:40:40;;;;;;;0.00;0.00;;;11.80;71.50;;;;;;5054393;28;20112;-63
2023/04/29 08:43:05;;;;;;;0.20;0.20;;;11.80;72.80;;;;;;5063163;28;20157;-62
2023/04/29 08:45:33;;;;;;;0.90;0.90;;;11.90;72.10;;;;;;5060559;28;20621;-63
2023/04/29 08:48:01;;;;;;;0.10;0.10;;;11.90;71.70;;;;;;5051925;28;20040;-63
2023/04/29 08:50:27;;;;;;;0.00;0.00;;;12.00;71.20;;;;;;5052010;28;20045;-63
2023/04/29 08:52:53;;;;;;;0.03;0.03;;;12.00;71.10;;;;;;5051890;28;20043;-63
2023/04/29 08:55:19;;;;;;;0.10;0.10;;;12.00;71.90;;;;;;5052195;28;20052;-63
2023/04/29 08:57:47;;;;;;;0.00;0.00;;;12.10;72.10;;;;;;5050552;28;20049;-63
2023/04/29 09:00:13;;;;;;;0.10;0.10;;;12.10;71.00;;;;;;5050725;28;20045;-64
2023/04/29 09:02:52;;;;;;;0.00;0.00;;;12.10;71.20;;;;;;5052828;28;20033;-62
2023/04/29 09:05:18;;;;;;;0.00;0.00;;;12.20;71.40;;;;;;5066941;28;20040;-63
2023/04/29 09:07:45;;;;;;;0.00;0.00;;;12.30;71.20;;;;;;5052967;28;20040;-63
2023/04/29 09:10:11;;;;;;;0.20;0.20;;;12.30;70.30;;;;;;5050814;28;20103;-63
2023/04/29 09:12:37;;;;;;;0.00;0.00;;;12.20;70.90;;;;;;5051502;28;20037;-63
2023/04/29 09:15:03;;;;;;;0.08;0.08;;;12.10;69.40;;;;;;5047780;28;20052;-62
2023/04/29 09:17:46;;;;;;;0.00;0.00;;;12.10;70.70;;;;;;5051920;28;20056;-63
2023/04/29 09:20:21;;;;;;;0.00;0.00;;;12.10;71.00;;;;;;5052169;28;20447;-63
2023/04/29 09:22:47;;;;;;;0.00;0.00;;;12.30;71.20;;;;;;5049697;28;20041;-62
2023/04/29 09:25:14;;;;;;;0.00;0.00;;;12.30;71.30;;;;;;5052154;28;20057;-62
2023/04/29 09:27:39;;;;;;;0.20;0.20;;;12.40;69.40;;;;;;5053624;28;20067;-62
2023/04/29 09:30:06;;;;;;;0.00;0.00;;;12.40;69.70;;;;;;5055354;28;21110;-63
2023/04/29 09:32:31;;;;;;;4.38;0.52;;;12.40;69.60;;;;;;5052558;28;20532;-63
2023/04/29 09:34:57;;;;;;;0.00;0.00;;;12.40;70.40;;;;;;5051862;28;20057;-63
2023/04/29 09:37:25;;;;;;;0.00;0.00;;;12.50;70.00;;;;;;5050882;28;20045;-66
2023/04/29 09:39:50;;;;;;;0.00;0.00;;;12.60;66.80;;;;;;5050426;28;20088;-63
2023/04/29 09:42:16;;;;;;;0.00;0.00;;;12.50;68.60;;;;;;5051090;28;20208;-62
2023/04/29 09:44:43;;;;;;;0.00;0.00;;;12.60;69.40;;;;;;5051418;28;20049;-63
2023/04/29 09:47:09;;;;;;;0.00;0.00;;;12.60;69.40;;;;;;5051105;28;20041;-63
2023/04/29 09:49:39;;;;;;;0.20;0.20;;;12.60;67.80;;;;;;5060936;28;20259;-63
2023/04/29 09:52:10;;;;;;;0.05;0.05;;;12.70;68.30;;;;;;5057815;28;20045;-63
2023/04/29 09:54:37;;;;;;;0.00;0.00;;;12.80;67.30;;;;;;5052863;28;20445;-62
2023/04/29 09:57:07;;;;;;;0.22;0.22;;;12.80;66.60;;;;;;5068980;28;20497;-62
2023/04/29 09:59:34;;;;;;;0.20;0.20;;;12.80;64.90;;;;;;5069229;28;20052;-63
2023/04/29 10:02:03;;;;;;;0.32;0.10;;;12.80;65.40;;;;;;5050201;28;20267;-63
2023/04/29 10:04:31;;;;;;;0.10;0.10;;;13.00;64.50;;;;;;5050773;28;20130;-63
2023/04/29 10:06:59;;;;;;;0.00;0.00;;;12.90;62.10;;;;;;5030361;28;20053;-65
2023/04/29 10:09:25;;;;;;;0.10;0.10;;;12.90;62.10;;;;;;5033980;28;20053;-63
2023/04/29 10:11:52;;;;;;;0.10;0.10;;;12.90;63.70;;;;;;5048993;28;20494;-63
2023/04/29 10:14:19;;;;;;;0.43;0.43;;;13.00;61.40;;;;;;5050057;28;20498;-63
2023/04/29 10:16:47;;;;;;;0.00;0.00;;;13.00;64.40;;;;;;5067376;28;20036;-63
2023/04/29 10:19:37;;;;;;;0.00;0.00;;;13.10;64.60;;;;;;5069566;28;20057;-63
2023/04/29 10:22:08;;;;;;;0.65;0.60;;;13.20;64.00;;;;;;5067386;28;20048;-63
2023/04/29 10:24:36;;;;;;;0.00;0.00;;;13.20;63.50;;;;;;5048381;28;20053;-63
2023/04/29 10:27:05;;;;;;;0.00;0.00;;;13.20;61.50;;;;;;5050966;28;20136;-64
2023/04/29 10:29:35;;;;;;;0.00;0.00;;;13.30;62.60;;;;;;5048674;28;20076;-64
2023/04/29 10:32:03;;;;;;;0.10;0.10;;;13.20;58.70;;;;;;5049646;28;20037;-72
2023/04/29 10:34:30;;;;;;;0.00;0.00;;;13.20;56.90;;;;;;5049872;28;20075;-64
2023/04/29 10:36:57;;;;;;;1.27;1.17;;;13.30;61.30;;;;;;5065212;28;20075;-64
2023/04/29 10:39:35;;;;;;;0.08;0.08;;;13.20;58.10;;;;;;5057741;28;20049;-63
2023/04/29 10:42:03;;;;;;;0.00;0.00;;;13.10;58.20;;;;;;5052237;28;20397;-63
2023/04/29 10:44:29;;;;;;;0.00;0.00;;;13.10;55.30;;;;;;5051117;28;20049;-63
2023/04/29 10:47:20;;;;;;;0.00;0.00;;;13.10;58.50;;;;;;5049481;28;20163;-63
2023/04/29 10:50:03;;;;;;;0.00;0.00;;;13.10;55.20;;;;;;5049017;28;20064;-64
2023/04/29 10:52:28;;;;;;;0.10;0.10;;;13.20;58.30;;;;;;5049598;28;20120;-63
2023/04/29 10:55:03;;;;;;;0.00;0.00;;;13.20;57.70;;;;;;5048926;28;20136;-64
2023/04/29 10:57:29;;;;;;;0.00;0.00;;;13.20;57.80;;;;;;5049254;28;20045;-63
2023/04/29 10:59:55;;;;;;;0.10;0.10;;;13.20;57.30;;;;;;5047296;28;20524;-63
2023/04/29 11:02:21;;;;;;;0.00;0.00;;;13.30;58.60;;;;;;5049134;28;20461;-64
2023/04/29 11:05:06;;;;;;;0.05;0.05;;;13.30;57.60;;;;;;5049026;28;20100;-65
2023/04/29 11:07:31;;;;;;;0.10;0.10;;;13.40;57.80;;;;;;5048856;28;20041;-64
2023/04/29 11:09:57;;;;;;;3.53;1.50;;;13.50;57.20;;;;;;5048438;28;20420;-64
2023/04/29 11:12:22;;;;;;;0.00;0.00;;;13.50;57.60;;;;;;5031151;28;20132;-64
2023/04/29 11:14:49;;;;;;;0.73;0.45;;;13.60;55.70;;;;;;5051092;28;20049;-63
2023/04/29 11:17:16;;;;;;;0.00;0.00;;;13.50;56.20;;;;;;5027243;28;20673;-64
2023/04/29 11:19:52;;;;;;;0.17;0.17;;;13.50;57.20;;;;;;5055115;28;20052;-63
2023/04/29 11:22:17;;;;;;;0.00;0.00;;;13.60;55.10;;;;;;5059059;28;20055;-62
2023/04/29 11:24:59;;;;;;;0.00;0.00;;;13.60;56.70;;;;;;5054715;28;20115;-63
2023/04/29 11:27:26;;;;;;;0.00;0.00;;;13.60;54.90;;;;;;5049061;28;20048;-63
2023/04/29 11:29:58;;;;;;;0.00;0.00;;;13.70;57.40;;;;;;5049073;28;20903;-63
2023/04/29 11:32:29;;;;;;;0.00;0.00;;;13.60;56.90;;;;;;5049129;28;20151;-63
2023/04/29 11:35:05;;;;;;;0.10;0.10;;;13.70;57.80;;;;;;5048762;28;20041;-63
2023/04/29 11:37:31;;;;;;;0.00;0.00;;;13.80;56.10;;;;;;5049890;28;20048;-63
2023/04/29 11:39:59;;;;;;;0.60;0.52;;;13.80;57.90;;;;;;5050158;28;20052;-64
2023/04/29 11:42:24;;;;;;;0.15;0.15;;;13.90;59.00;;;;;;5048663;28;20158;-63
2023/04/29 11:44:52;;;;;;;0.00;0.00;;;13.90;59.10;;;;;;5048809;28;20119;-63
2023/04/29 11:47:17;;;;;;;0.00;0.00;;;14.00;59.60;;;;;;5049183;28;20555;-62
2023/04/29 11:49:43;;;;;;;0.00;0.00;;;14.00;58.20;;;;;;5048740;28;20061;-63
2023/04/29 11:52:09;;;;;;;0.00;0.00;;;14.00;59.50;;;;;;5049048;28;20210;-62
2023/04/29 11:54:35;;;;;;;0.00;0.00;;;14.10;58.70;;;;;;5047712;28;20049;-63
2023/04/29 11:57:03;;;;;;;0.00;0.00;;;14.10;59.10;;;;;;5049708;28;20056;-63
2023/04/29 11:59:31;;;;;;;0.00;0.00;;;14.20;59.00;;;;;;5048997;28;20434;-63
2023/04/29 12:01:58;;;;;;;1.00;0.52;;;14.10;59.10;;;;;;5048802;28;20037;-63
2023/04/29 12:04:23;;;;;;;0.00;0.00;;;14.10;60.10;;;;;;5048416;28;20988;-63
2023/04/29 12:06:52;;;;;;;0.47;0.22;;;14.10;60.10;;;;;;5048999;28;20044;-63
2023/04/29 12:09:18;;;;;;;0.00;0.00;;;14.10;58.60;;;;;;5048491;28;20041;-63
2023/04/29 12:11:45;;;;;;;0.30;0.30;;;14.20;58.40;;;;;;5051897;28;20041;-63
2023/04/29 12:14:12;;;;;;;0.00;0.00;;;14.10;58.50;;;;;;5052787;28;20095;-63
2023/04/29 12:16:38;;;;;;;0.00;0.00;;;14.10;59.70;;;;;;5052979;28;20048;-63
2023/04/29 12:19:04;;;;;;;0.00;0.00;;;14.10;59.10;;;;;;5058950;28;20477;-63
2023/04/29 12:21:30;;;;;;;0.00;0.00;;;14.30;59.60;;;;;;5070983;28;20489;-63
2023/04/29 12:23:59;;;;;;;0.00;0.00;;;14.40;59.80;;;;;;5072502;28;20078;-63
2023/04/29 12:26:27;;;;;;;0.00;0.00;;;14.50;60.30;;;;;;5062679;28;20127;-63
2023/04/29 12:28:54;;;;;;;0.00;0.00;;;14.50;59.10;;;;;;5052241;28;20033;-63
2023/04/29 12:31:20;;;;;;;0.00;0.00;;;14.60;58.50;;;;;;5052807;28;20808;-63
2023/04/29 12:33:45;;;;;;;0.00;0.00;;;14.50;57.80;;;;;;5052503;28;20048;-63
2023/04/29 12:36:18;;;;;;;0.00;0.00;;;14.60;58.90;;;;;;5052860;28;20049;-63
2023/04/29 12:38:46;;;;;;;0.00;0.00;;;14.70;60.60;;;;;;5052373;28;20048;-63
2023/04/29 12:41:16;;;;;;;0.00;0.00;;;14.90;59.20;;;;;;5053424;28;20049;-63
2023/04/29 12:43:42;;;;;;;0.00;0.00;;;14.90;57.50;;;;;;5052442;28;20092;-63
2023/04/29 12:46:09;;;;;;;0.00;0.00;;;15.00;57.10;;;;;;5053463;28;20566;-63
2023/04/29 12:48:45;;;;;;;0.10;0.10;;;15.00;57.20;;;;;;5071828;28;20057;-63
2023/04/29 12:51:11;;;;;;;0.10;0.10;;;15.10;54.90;;;;;;5071624;28;20124;-63
2023/04/29 12:53:37;;;;;;;0.00;0.00;;;15.10;55.20;;;;;;5071655;28;20132;-62